Time;durP1;ratioP1;P1;durP2;ratioP2;P2;SDS_P1;SDS_P2;PMS_P1;PMS_P2;Temp;Humidity;BMP_temperature;BMP_pressure;BME280_temperature;BME280_humidity;BME280_pressure;Samples;Min_cycle;Max_cycle;Signal;HPM_P1;HPM_P2
2023/04/18 00:00:58;;;;;;;9.70;8.70;;;8.20;99.90;;;;;;4953126;29;20199;-66
2023/04/18 00:03:24;;;;;;;11.50;8.20;;;8.10;99.90;;;;;;4954246;28;20189;-66
2023/04/18 00:05:49;;;;;;;11.57;8.17;;;8.10;99.90;;;;;;4953073;29;20691;-65
2023/04/18 00:08:15;;;;;;;10.40;9.43;;;8.00;99.90;;;;;;4965495;28;20193;-66
2023/04/18 00:10:41;;;;;;;9.50;8.67;;;7.90;99.90;;;;;;4971914;28;20193;-65
2023/04/18 00:13:06;;;;;;;17.17;9.53;;;7.90;99.90;;;;;;4970952;28;20259;-66
2023/04/18 00:15:34;;;;;;;8.73;8.03;;;7.90;99.90;;;;;;4971711;28;20233;-66
2023/04/18 00:18:02;;;;;;;10.73;9.77;;;7.80;99.90;;;;;;4962731;28;20193;-65
2023/04/18 00:20:28;;;;;;;11.13;8.57;;;7.80;99.90;;;;;;4952776;29;20655;-65
2023/04/18 00:22:54;;;;;;;10.70;9.70;;;7.80;99.90;;;;;;4960367;28;20181;-66
2023/04/18 00:25:20;;;;;;;9.20;8.30;;;7.80;99.90;;;;;;4972509;28;20208;-65
2023/04/18 00:27:46;;;;;;;9.30;8.50;;;7.80;99.90;;;;;;4966454;28;20198;-65
2023/04/18 00:30:11;;;;;;;9.63;8.63;;;7.70;99.90;;;;;;4952991;29;20262;-66
2023/04/18 00:32:37;;;;;;;9.63;8.53;;;7.70;99.90;;;;;;4957009;28;20228;-66
2023/04/18 00:35:04;;;;;;;10.27;9.23;;;7.60;99.90;;;;;;4972432;28;20675;-66
2023/04/18 00:37:29;;;;;;;11.77;9.10;;;7.60;99.90;;;;;;4970609;28;20181;-65
2023/04/18 00:39:55;;;;;;;10.37;9.37;;;7.60;99.90;;;;;;4954607;28;20177;-66
2023/04/18 00:42:21;;;;;;;10.60;9.67;;;7.50;99.90;;;;;;4971685;28;20199;-66
2023/04/18 00:44:47;;;;;;;10.97;8.63;;;7.50;99.90;;;;;;4952737;29;20186;-66
2023/04/18 00:47:17;;;;;;;9.70;8.70;;;7.40;99.90;;;;;;4952969;29;20233;-66
2023/04/18 00:49:47;;;;;;;9.43;8.73;;;7.40;99.90;;;;;;4971006;28;20276;-65
2023/04/18 00:52:14;;;;;;;9.53;8.70;;;7.30;99.90;;;;;;4972287;28;20174;-65
2023/04/18 00:54:40;;;;;;;9.10;8.33;;;7.30;99.90;;;;;;4971606;28;20209;-65
2023/04/18 00:57:06;;;;;;;8.87;8.17;;;7.30;99.90;;;;;;4971991;28;20197;-65
2023/04/18 00:59:34;;;;;;;10.00;9.20;;;7.30;99.90;;;;;;4955648;28;20278;-65
2023/04/18 01:02:00;;;;;;;9.03;8.23;;;7.20;99.90;;;;;;4952988;28;20182;-65
2023/04/18 01:04:26;;;;;;;9.67;8.77;;;7.20;99.90;;;;;;4967160;28;20182;-65
2023/04/18 01:06:52;;;;;;;10.43;8.13;;;7.10;99.90;;;;;;4959400;28;20567;-65
2023/04/18 01:09:18;;;;;;;12.13;8.40;;;7.10;99.90;;;;;;4955321;29;20186;-66
2023/04/18 01:11:44;;;;;;;8.63;7.73;;;7.10;99.90;;;;;;4966144;28;20185;-66
2023/04/18 01:14:10;;;;;;;10.70;8.63;;;7.00;99.90;;;;;;4975609;28;20569;-66
2023/04/18 01:16:35;;;;;;;8.23;7.53;;;7.00;99.90;;;;;;4966230;28;20206;-66
2023/04/18 01:19:02;;;;;;;8.47;7.87;;;7.00;99.90;;;;;;4956140;29;20174;-65
2023/04/18 01:21:35;;;;;;;15.87;7.83;;;7.00;99.90;;;;;;4962854;28;20265;-65
2023/04/18 01:24:13;;;;;;;13.30;7.73;;;6.90;99.90;;;;;;4975498;28;20566;-65
2023/04/18 01:26:39;;;;;;;9.10;8.13;;;6.90;99.90;;;;;;4974837;28;20576;-65
2023/04/18 01:29:05;;;;;;;8.37;7.77;;;6.90;99.90;;;;;;4975120;28;20604;-66
2023/04/18 01:31:38;;;;;;;8.13;7.33;;;6.80;99.90;;;;;;4968547;28;20193;-65
2023/04/18 01:34:04;;;;;;;11.67;9.03;;;6.70;99.90;;;;;;4955949;29;20265;-65
2023/04/18 01:36:30;;;;;;;8.67;7.97;;;6.70;99.90;;;;;;4960747;28;20193;-65
2023/04/18 01:38:57;;;;;;;8.00;7.23;;;6.70;99.90;;;;;;4973797;28;20173;-66
2023/04/18 01:41:22;;;;;;;12.23;8.20;;;6.60;99.90;;;;;;4970733;28;20686;-65
2023/04/18 01:43:48;;;;;;;10.67;8.90;;;6.60;99.90;;;;;;4955788;29;20163;-66
2023/04/18 01:46:14;;;;;;;8.27;7.53;;;6.50;99.90;;;;;;4957414;28;20284;-65
2023/04/18 01:48:40;;;;;;;9.27;8.57;;;6.50;99.90;;;;;;4974886;28;20224;-66
2023/04/18 01:51:05;;;;;;;9.10;8.50;;;6.40;99.90;;;;;;4974015;28;20263;-65
2023/04/18 01:53:31;;;;;;;9.23;8.17;;;6.30;99.90;;;;;;4962760;28;20185;-66
2023/04/18 01:55:57;;;;;;;9.97;8.67;;;6.30;99.90;;;;;;4974665;28;20244;-66
2023/04/18 01:58:24;;;;;;;14.33;9.07;;;6.20;99.90;;;;;;4974839;28;20170;-65
2023/04/18 02:00:53;;;;;;;10.07;9.17;;;6.20;99.90;;;;;;4974310;28;20177;-66
2023/04/18 02:03:20;;;;;;;11.30;8.93;;;6.20;99.90;;;;;;4973923;28;20523;-65
2023/04/18 02:05:46;;;;;;;8.93;8.27;;;6.10;99.90;;;;;;4974522;28;20256;-66
2023/04/18 02:08:12;;;;;;;8.17;7.67;;;6.10;99.90;;;;;;4960009;28;20186;-65
2023/04/18 02:10:37;;;;;;;10.33;9.43;;;6.10;99.90;;;;;;4955099;29;20593;-66
2023/04/18 02:13:03;;;;;;;10.23;9.13;;;6.10;99.90;;;;;;4967653;28;20236;-65
2023/04/18 02:15:29;;;;;;;9.53;8.63;;;6.00;99.90;;;;;;4974338;28;20205;-65
2023/04/18 02:17:54;;;;;;;9.33;8.63;;;6.00;99.90;;;;;;4962535;28;20249;-65
2023/04/18 02:20:20;;;;;;;9.43;8.63;;;6.00;99.90;;;;;;4954811;28;20249;-66
2023/04/18 02:22:46;;;;;;;16.80;9.33;;;5.90;99.90;;;;;;4964264;28;20639;-65
2023/04/18 02:25:12;;;;;;;9.73;9.03;;;5.80;99.90;;;;;;4974281;28;20185;-65
2023/04/18 02:27:38;;;;;;;10.10;9.27;;;5.80;99.90;;;;;;4966396;28;20678;-64
2023/04/18 02:30:04;;;;;;;9.63;8.83;;;5.80;99.90;;;;;;4954707;29;20214;-65
2023/04/18 02:32:30;;;;;;;18.23;10.80;;;5.80;99.90;;;;;;4960351;28;20182;-65
2023/04/18 02:34:56;;;;;;;10.37;8.63;;;5.70;99.90;;;;;;4973797;28;20291;-66
2023/04/18 02:37:21;;;;;;;10.33;9.37;;;5.70;99.90;;;;;;4969554;28;20228;-65
2023/04/18 02:39:47;;;;;;;9.70;8.83;;;5.70;99.90;;;;;;4954331;29;20181;-64
2023/04/18 02:42:12;;;;;;;12.57;9.00;;;5.70;99.90;;;;;;4956693;28;20672;-65
2023/04/18 02:44:38;;;;;;;9.80;8.70;;;5.60;99.90;;;;;;4974009;28;20174;-65
2023/04/18 02:47:03;;;;;;;10.90;9.97;;;5.60;99.90;;;;;;4973236;28;20558;-65
2023/04/18 02:49:29;;;;;;;15.73;9.17;;;5.60;99.90;;;;;;4972594;28;20251;-66
2023/04/18 02:51:56;;;;;;;9.40;8.47;;;5.60;99.90;;;;;;4973947;28;20466;-65
2023/04/18 02:54:21;;;;;;;9.83;8.97;;;5.60;99.90;;;;;;4956025;28;20198;-65
2023/04/18 02:56:47;;;;;;;11.40;9.50;;;5.60;99.90;;;;;;4954297;29;20290;-66
2023/04/18 02:59:12;;;;;;;9.63;8.90;;;5.50;99.90;;;;;;4969946;28;20217;-66
2023/04/18 03:01:38;;;;;;;10.97;9.97;;;5.50;99.90;;;;;;4974382;28;20178;-70
2023/04/18 03:04:04;;;;;;;10.20;9.27;;;5.50;99.90;;;;;;4974397;28;20216;-70
2023/04/18 03:06:30;;;;;;;15.97;10.27;;;5.50;99.90;;;;;;4974777;28;20217;-69
2023/04/18 03:08:56;;;;;;;10.13;9.17;;;5.50;99.90;;;;;;4961876;28;20178;-71
2023/04/18 03:11:21;;;;;;;10.77;9.73;;;5.50;99.90;;;;;;4955500;29;20174;-72
2023/04/18 03:13:47;;;;;;;10.37;9.37;;;5.40;99.90;;;;;;4956654;28;20186;-73
2023/04/18 03:16:25;;;;;;;10.33;9.37;;;5.40;99.90;;;;;;5090267;28;20582;-71
2023/04/18 03:18:51;;;;;;;9.80;9.00;;;5.40;99.90;;;;;;5068253;28;20244;-67
2023/04/18 03:21:17;;;;;;;11.13;10.00;;;5.40;99.90;;;;;;5068590;28;20174;-70
2023/04/18 03:23:43;;;;;;;10.07;9.13;;;5.30;99.90;;;;;;5059743;28;20266;-69
2023/04/18 03:26:08;;;;;;;10.77;9.87;;;5.30;99.90;;;;;;5049935;28;20191;-72
2023/04/18 03:28:34;;;;;;;11.27;9.53;;;5.30;99.90;;;;;;5057601;28;20174;-69
2023/04/18 03:31:00;;;;;;;10.27;9.20;;;5.20;99.90;;;;;;5068348;28;20671;-71
2023/04/18 03:33:27;;;;;;;9.77;9.07;;;5.20;99.90;;;;;;5069630;28;20183;-72
2023/04/18 03:35:53;;;;;;;11.73;10.50;;;5.20;99.90;;;;;;5069668;28;20193;-71
2023/04/18 03:38:18;;;;;;;10.80;9.70;;;5.10;99.90;;;;;;5066835;28;20265;-70
2023/04/18 03:40:45;;;;;;;11.93;10.17;;;5.10;99.90;;;;;;5068450;28;20198;-71
2023/04/18 03:43:10;;;;;;;11.43;10.13;;;5.20;99.90;;;;;;5067744;28;20966;-71
2023/04/18 03:45:36;;;;;;;10.97;10.10;;;5.20;99.90;;;;;;5049647;28;20199;-71
2023/04/18 03:48:02;;;;;;;11.27;9.63;;;5.20;99.90;;;;;;5048537;28;20175;-70
2023/04/18 03:50:28;;;;;;;10.43;9.57;;;5.20;99.90;;;;;;5069235;28;20198;-70
2023/04/18 03:52:53;;;;;;;11.40;10.20;;;5.20;99.90;;;;;;5069633;28;20223;-71
2023/04/18 03:55:19;;;;;;;11.57;10.40;;;5.20;99.90;;;;;;5069065;28;20247;-69
2023/04/18 03:57:46;;;;;;;10.00;9.00;;;5.10;99.90;;;;;;5069493;28;20171;-70
2023/04/18 04:00:12;;;;;;;10.47;9.57;;;5.10;99.90;;;;;;5068523;28;20575;-74
2023/04/18 04:02:38;;;;;;;10.20;9.17;;;5.10;99.90;;;;;;5069424;28;20175;-70
2023/04/18 04:05:04;;;;;;;10.13;9.17;;;5.00;99.90;;;;;;5054914;28;20520;-70
2023/04/18 04:07:30;;;;;;;12.20;10.40;;;5.00;99.90;;;;;;5047929;28;20651;-67
2023/04/18 04:09:57;;;;;;;11.17;9.97;;;5.00;99.90;;;;;;5060320;28;20186;-69
2023/04/18 04:12:24;;;;;;;12.10;10.87;;;5.00;99.90;;;;;;5067849;28;20178;-70
2023/04/18 04:14:49;;;;;;;11.40;10.40;;;5.00;99.90;;;;;;5057021;28;20249;-72
2023/04/18 04:17:15;;;;;;;10.80;9.67;;;5.00;99.90;;;;;;5048794;28;20230;-71
2023/04/18 04:19:41;;;;;;;14.90;10.33;;;4.90;99.90;;;;;;5048663;28;20186;-69
2023/04/18 04:22:07;;;;;;;9.93;9.03;;;4.90;99.90;;;;;;5050132;28;20171;-69
2023/04/18 04:24:32;;;;;;;12.03;9.23;;;4.90;99.90;;;;;;5048096;28;20547;-71
2023/04/18 04:27:02;;;;;;;17.03;9.67;;;4.90;99.90;;;;;;5042023;28;20202;-68
2023/04/18 04:29:28;;;;;;;11.73;9.57;;;4.80;99.90;;;;;;5055415;28;20178;-69
2023/04/18 04:31:54;;;;;;;12.00;10.27;;;4.80;99.90;;;;;;5054022;28;20599;-70
2023/04/18 04:34:20;;;;;;;12.57;10.73;;;4.80;99.90;;;;;;5054138;28;20195;-68
2023/04/18 04:36:46;;;;;;;13.40;10.17;;;4.70;99.90;;;;;;5051523;28;20551;-68
2023/04/18 04:39:13;;;;;;;10.77;9.83;;;4.70;99.90;;;;;;5035286;28;20159;-69
2023/04/18 04:41:39;;;;;;;11.80;10.60;;;4.70;99.90;;;;;;5036551;28;20172;-70
2023/04/18 04:44:05;;;;;;;12.80;10.77;;;4.70;99.90;;;;;;5055546;28;20170;-69
2023/04/18 04:46:32;;;;;;;11.77;10.83;;;4.80;99.90;;;;;;5055282;28;20197;-69
2023/04/18 04:48:58;;;;;;;11.80;10.70;;;4.80;99.90;;;;;;5035813;28;20648;-69
2023/04/18 04:51:24;;;;;;;12.37;11.07;;;4.80;99.90;;;;;;5035022;28;20216;-70
2023/04/18 04:53:50;;;;;;;13.63;12.23;;;4.80;99.90;;;;;;5053438;28;20175;-68
2023/04/18 04:56:16;;;;;;;12.30;10.67;;;4.80;99.90;;;;;;5053776;28;20210;-68
2023/04/18 04:58:41;;;;;;;11.50;10.47;;;4.90;99.90;;;;;;5039117;28;20203;-70
2023/04/18 05:01:08;;;;;;;11.40;10.40;;;4.90;99.90;;;;;;5032683;28;20172;-65
2023/04/18 05:03:35;;;;;;;14.93;11.17;;;5.10;99.90;;;;;;5047565;28;20187;-65
2023/04/18 05:06:00;;;;;;;12.73;11.43;;;5.20;99.90;;;;;;5053348;28;20248;-65
2023/04/18 05:08:26;;;;;;;13.07;11.70;;;5.30;99.90;;;;;;5039986;28;20657;-64
2023/04/18 05:10:52;;;;;;;14.27;11.50;;;5.50;99.90;;;;;;5032881;28;20172;-65
2023/04/18 05:13:17;;;;;;;12.50;11.30;;;5.60;99.90;;;;;;5044261;28;20189;-65
2023/04/18 05:15:43;;;;;;;11.77;10.57;;;5.80;99.90;;;;;;5052834;28;20225;-65
2023/04/18 05:18:08;;;;;;;12.63;11.33;;;5.90;99.90;;;;;;5043394;28;20163;-65
2023/04/18 05:20:34;;;;;;;12.07;10.83;;;6.10;99.90;;;;;;5032696;28;20195;-65
2023/04/18 05:23:00;;;;;;;13.30;11.97;;;6.20;99.90;;;;;;5039891;28;20252;-66
2023/04/18 05:25:26;;;;;;;14.50;10.93;;;6.30;99.90;;;;;;5047099;28;20265;-65
2023/04/18 05:27:51;;;;;;;13.37;10.37;;;6.40;99.90;;;;;;5033002;28;20178;-66
2023/04/18 05:30:17;;;;;;;12.67;11.07;;;6.60;99.90;;;;;;5036379;28;20598;-66
2023/04/18 05:32:42;;;;;;;13.83;12.53;;;6.70;99.90;;;;;;5052993;28;20179;-65
2023/04/18 05:35:08;;;;;;;16.10;12.87;;;6.70;99.90;;;;;;5050514;28;20691;-66
2023/04/18 05:37:34;;;;;;;12.50;11.20;;;6.80;99.90;;;;;;5032455;28;20176;-65
2023/04/18 05:40:00;;;;;;;13.07;11.33;;;6.90;99.90;;;;;;5036039;28;20173;-66
2023/04/18 05:42:25;;;;;;;13.60;11.47;;;7.00;99.90;;;;;;5052446;28;20166;-66
2023/04/18 05:44:51;;;;;;;20.77;11.70;;;7.20;99.90;;;;;;5052637;28;20205;-66
2023/04/18 05:47:16;;;;;;;14.83;13.10;;;7.30;99.90;;;;;;5049887;28;20204;-66
2023/04/18 05:49:42;;;;;;;13.63;11.87;;;7.30;99.90;;;;;;5050771;28;20207;-65
2023/04/18 05:52:08;;;;;;;15.40;13.00;;;7.40;99.90;;;;;;5050938;28;20182;-66
2023/04/18 05:54:33;;;;;;;15.00;13.20;;;7.50;99.90;;;;;;5043655;28;20199;-65
2023/04/18 05:56:59;;;;;;;15.03;12.67;;;7.60;99.90;;;;;;5032433;28;20648;-65
2023/04/18 05:59:28;;;;;;;13.47;12.07;;;7.70;99.90;;;;;;5042664;28;20258;-66
2023/04/18 06:01:53;;;;;;;12.37;11.10;;;7.80;99.90;;;;;;5051683;28;20163;-65
2023/04/18 06:04:19;;;;;;;15.83;12.73;;;8.00;99.90;;;;;;5051923;28;20523;-65
2023/04/18 06:06:45;;;;;;;14.00;12.60;;;8.10;99.90;;;;;;5051876;28;20232;-65
2023/04/18 06:09:11;;;;;;;13.33;11.93;;;8.30;99.90;;;;;;5032992;28;20203;-65
2023/04/18 06:11:36;;;;;;;14.03;12.57;;;8.40;99.90;;;;;;5031835;28;20195;-66
2023/04/18 06:14:02;;;;;;;12.40;11.27;;;8.60;99.90;;;;;;5048086;28;20174;-64
2023/04/18 06:16:28;;;;;;;13.73;12.07;;;8.90;99.90;;;;;;5051710;28;20755;-64
2023/04/18 06:18:54;;;;;;;12.27;10.20;;;9.30;99.90;;;;;;5049663;28;20193;-65
2023/04/18 06:21:20;;;;;;;11.47;10.37;;;9.80;99.90;;;;;;5051451;28;20167;-66
2023/04/18 06:23:46;;;;;;;13.13;10.80;;;10.20;99.90;;;;;;5038143;28;20176;-65
2023/04/18 06:26:12;;;;;;;10.33;9.23;;;10.50;99.90;;;;;;5031745;28;20534;-65
2023/04/18 06:28:38;;;;;;;11.37;9.87;;;10.90;99.90;;;;;;5043026;28;20236;-65
2023/04/18 06:31:04;;;;;;;10.30;8.80;;;11.10;99.90;;;;;;5051299;28;20171;-64
2023/04/18 06:33:29;;;;;;;9.73;8.40;;;11.30;99.90;;;;;;5041333;28;20270;-65
2023/04/18 06:35:56;;;;;;;8.83;7.93;;;11.20;99.90;;;;;;5031572;28;20625;-65
2023/04/18 06:38:21;;;;;;;9.30;8.50;;;11.10;99.90;;;;;;5038493;28;20619;-65
2023/04/18 06:40:47;;;;;;;10.03;8.77;;;10.90;99.90;;;;;;5051008;28;20254;-66
2023/04/18 06:43:12;;;;;;;13.37;8.93;;;10.70;99.90;;;;;;5044703;28;20172;-66
2023/04/18 06:45:39;;;;;;;11.40;8.73;;;10.60;99.90;;;;;;5031521;28;20278;-65
2023/04/18 06:48:05;;;;;;;9.27;8.07;;;10.80;99.90;;;;;;5032764;28;20225;-65
2023/04/18 06:50:30;;;;;;;9.67;8.63;;;11.00;99.90;;;;;;5035065;28;20202;-65
2023/04/18 06:52:56;;;;;;;8.07;7.37;;;11.40;99.90;;;;;;5041773;28;20637;-65
2023/04/18 06:55:22;;;;;;;8.67;7.90;;;12.00;99.90;;;;;;5034303;28;20203;-65
2023/04/18 06:57:47;;;;;;;11.40;7.70;;;12.40;99.90;;;;;;5031983;28;20175;-65
2023/04/18 07:00:13;;;;;;;7.80;7.00;;;12.60;99.90;;;;;;5050672;28;20171;-65
2023/04/18 07:02:40;;;;;;;8.30;7.50;;;12.60;99.90;;;;;;5049228;28;20191;-65
2023/04/18 07:05:06;;;;;;;7.90;7.20;;;12.70;99.90;;;;;;5041260;28;20172;-65
2023/04/18 07:07:32;;;;;;;9.13;7.50;;;12.70;99.90;;;;;;5046474;28;20647;-65
2023/04/18 07:09:58;;;;;;;9.27;7.27;;;12.70;99.90;;;;;;5042415;28;20245;-65
2023/04/18 07:12:24;;;;;;;9.70;7.13;;;12.80;99.90;;;;;;5040648;28;20630;-65
2023/04/18 07:14:50;;;;;;;7.73;6.90;;;12.70;99.90;;;;;;5031242;28;20213;-66
2023/04/18 07:17:16;;;;;;;7.30;6.50;;;12.50;99.90;;;;;;5036782;28;20190;-66
2023/04/18 07:19:43;;;;;;;8.67;7.87;;;12.40;99.90;;;;;;5050394;28;20174;-65
2023/04/18 07:22:09;;;;;;;7.67;6.87;;;12.20;99.90;;;;;;5051198;28;20171;-65
2023/04/18 07:24:35;;;;;;;7.73;6.60;;;12.30;99.90;;;;;;5051312;28;20256;-63
2023/04/18 07:27:02;;;;;;;7.53;6.90;;;12.40;99.90;;;;;;5046707;28;20191;-65
2023/04/18 07:29:27;;;;;;;7.43;6.67;;;12.40;99.90;;;;;;5030809;28;20171;-64
2023/04/18 07:31:53;;;;;;;7.37;6.67;;;12.50;99.90;;;;;;5033885;28;20186;-64
2023/04/18 07:34:20;;;;;;;6.80;6.10;;;12.70;99.90;;;;;;5051031;28;20538;-65
2023/04/18 07:36:46;;;;;;;7.63;6.87;;;12.90;99.90;;;;;;5049274;28;20224;-65
2023/04/18 07:39:12;;;;;;;7.23;6.20;;;13.20;99.90;;;;;;5030814;28;20564;-65
2023/04/18 07:41:37;;;;;;;10.03;6.53;;;13.40;99.90;;;;;;5041408;28;20179;-63
2023/04/18 07:44:03;;;;;;;7.23;5.60;;;13.40;99.90;;;;;;5051010;28;20174;-64
2023/04/18 07:46:31;;;;;;;6.20;5.70;;;13.70;99.90;;;;;;5041578;28;20968;-64
2023/04/18 07:48:57;;;;;;;6.40;5.90;;;13.90;99.90;;;;;;5030912;28;20176;-63
2023/04/18 07:51:25;;;;;;;6.53;6.00;;;13.80;99.90;;;;;;5041753;28;20269;-64
2023/04/18 07:53:51;;;;;;;6.77;6.20;;;13.90;99.90;;;;;;5049370;28;20213;-65
2023/04/18 07:56:16;;;;;;;5.70;5.27;;;13.80;99.90;;;;;;5050036;28;20253;-64
2023/04/18 07:58:42;;;;;;;6.77;6.17;;;13.90;99.90;;;;;;5050756;28;20201;-64
2023/04/18 08:01:12;;;;;;;6.97;6.37;;;14.00;99.90;;;;;;5042166;28;20294;-65
2023/04/18 08:03:37;;;;;;;6.57;5.97;;;14.00;99.90;;;;;;5052878;28;20170;-66
2023/04/18 08:06:04;;;;;;;6.27;5.73;;;14.10;99.90;;;;;;5052515;28;20749;-65
2023/04/18 08:08:30;;;;;;;6.33;5.73;;;14.20;99.90;;;;;;5054307;28;20170;-65
2023/04/18 08:10:55;;;;;;;6.80;5.83;;;14.40;99.90;;;;;;5048362;28;20211;-64
2023/04/18 08:13:21;;;;;;;6.50;5.90;;;14.40;99.90;;;;;;5053107;28;20181;-65
2023/04/18 08:15:47;;;;;;;7.23;6.57;;;14.30;99.90;;;;;;5054023;28;20703;-65
2023/04/18 08:18:12;;;;;;;6.50;6.00;;;14.00;99.90;;;;;;5043976;28;20171;-65
2023/04/18 08:20:38;;;;;;;5.70;5.23;;;13.80;99.90;;;;;;5033714;28;20182;-64
2023/04/18 08:23:03;;;;;;;6.63;6.00;;;13.80;99.90;;;;;;5034047;28;20179;-65
2023/04/18 08:25:30;;;;;;;6.43;5.93;;;13.80;99.90;;;;;;5033945;28;20623;-66
2023/04/18 08:27:56;;;;;;;6.53;6.03;;;13.90;99.90;;;;;;5033758;28;20210;-65
2023/04/18 08:30:22;;;;;;;7.10;6.47;;;13.90;99.90;;;;;;5033895;28;20164;-65
2023/04/18 08:32:48;;;;;;;8.17;6.50;;;13.90;99.90;;;;;;5033823;28;20229;-64
2023/04/18 08:35:14;;;;;;;7.07;6.40;;;13.50;99.90;;;;;;5049529;28;20198;-66
2023/04/18 08:37:40;;;;;;;6.63;6.13;;;13.10;99.90;;;;;;5053945;28;20663;-64
2023/04/18 08:40:06;;;;;;;6.90;6.30;;;12.70;99.90;;;;;;5053676;28;20201;-64
2023/04/18 08:42:32;;;;;;;6.93;6.33;;;12.60;99.90;;;;;;5053724;28;20174;-64
2023/04/18 08:44:59;;;;;;;6.70;6.10;;;12.60;99.90;;;;;;5053735;28;20178;-65
2023/04/18 08:47:27;;;;;;;7.50;6.80;;;12.60;99.90;;;;;;5053442;28;20199;-66
2023/04/18 08:49:53;;;;;;;6.50;6.00;;;12.70;99.90;;;;;;5053303;28;20189;-64
2023/04/18 08:52:21;;;;;;;7.17;6.37;;;12.70;99.90;;;;;;5052335;28;20210;-65
2023/04/18 08:54:48;;;;;;;6.43;5.83;;;13.00;99.90;;;;;;5053333;28;20199;-65
2023/04/18 08:57:15;;;;;;;6.73;6.13;;;13.30;99.90;;;;;;5053575;28;20544;-66
2023/04/18 08:59:44;;;;;;;6.83;6.10;;;13.60;99.90;;;;;;5052978;28;20171;-65
2023/04/18 09:02:11;;;;;;;7.53;5.80;;;13.50;99.90;;;;;;5053746;28;20170;-64
2023/04/18 09:04:39;;;;;;;6.47;5.97;;;13.20;99.90;;;;;;5053172;28;20183;-65
2023/04/18 09:07:07;;;;;;;6.60;6.10;;;13.00;99.90;;;;;;5053236;28;20190;-64
2023/04/18 09:09:46;;;;;;;6.17;5.67;;;12.80;99.90;;;;;;5053260;28;20194;-64
2023/04/18 09:12:28;;;;;;;6.63;6.00;;;12.90;99.90;;;;;;5052047;28;20231;-66
2023/04/18 09:14:56;;;;;;;6.43;5.90;;;12.80;99.90;;;;;;5052860;28;20210;-66
2023/04/18 09:17:44;;;;;;;9.07;8.37;;;12.80;99.90;;;;;;5044188;28;20195;-64
2023/04/18 09:20:12;;;;;;;6.97;6.37;;;12.80;99.90;;;;;;5047198;28;20206;-64
2023/04/18 09:22:56;;;;;;;6.43;5.93;;;12.70;99.90;;;;;;5053013;28;20179;-64
2023/04/18 09:25:36;;;;;;;7.20;6.70;;;12.60;99.90;;;;;;5052784;28;20190;-65
2023/04/18 09:28:03;;;;;;;7.27;6.63;;;12.40;99.90;;;;;;5066063;22;20725;-64
2023/04/18 09:30:39;;;;;;;6.80;6.20;;;12.40;99.90;;;;;;5031612;28;20637;-64
2023/04/18 09:33:08;;;;;;;7.53;6.90;;;12.30;99.90;;;;;;5021907;28;20258;-64
2023/04/18 09:35:35;;;;;;;7.03;6.43;;;12.30;99.90;;;;;;5012956;28;20231;-64
2023/04/18 09:38:01;;;;;;;6.13;5.73;;;12.30;99.90;;;;;;5023988;28;20680;-64
2023/04/18 09:40:27;;;;;;;6.80;6.30;;;12.40;99.90;;;;;;5032482;28;20214;-64
2023/04/18 09:42:53;;;;;;;6.23;5.67;;;12.50;99.90;;;;;;5031095;28;20211;-63
2023/04/18 09:45:20;;;;;;;6.93;6.43;;;12.60;99.90;;;;;;5032525;28;20176;-64
2023/04/18 09:47:45;;;;;;;7.10;6.43;;;12.70;99.90;;;;;;5024044;28;20294;-65
2023/04/18 09:50:11;;;;;;;6.67;6.17;;;12.80;99.90;;;;;;5012399;28;20255;-64
2023/04/18 09:52:39;;;;;;;6.90;6.20;;;13.00;99.90;;;;;;5012324;28;20609;-65
2023/04/18 09:55:07;;;;;;;6.47;5.97;;;13.10;99.90;;;;;;5012699;28;20196;-65
2023/04/18 09:57:34;;;;;;;7.07;6.43;;;13.10;99.90;;;;;;5017182;28;20343;-65
2023/04/18 10:00:00;;;;;;;6.80;6.30;;;13.50;99.90;;;;;;5025521;28;20252;-63
2023/04/18 10:02:32;;;;;;;6.43;5.83;;;14.20;99.90;;;;;;5013440;28;20263;-63
2023/04/18 10:04:58;;;;;;;6.50;5.97;;;14.80;99.90;;;;;;5015277;28;20226;-64
2023/04/18 10:07:26;;;;;;;6.33;5.83;;;15.20;99.90;;;;;;5012266;28;20192;-64
2023/04/18 10:09:52;;;;;;;6.23;5.47;;;15.30;99.90;;;;;;5011922;28;20271;-65
2023/04/18 10:12:18;;;;;;;6.17;5.57;;;15.00;99.90;;;;;;5012384;28;20577;-64
2023/04/18 10:14:44;;;;;;;6.27;5.77;;;15.00;99.90;;;;;;5011678;28;20731;-63
2023/04/18 10:17:10;;;;;;;6.40;5.90;;;14.80;99.90;;;;;;5012482;28;20188;-63
2023/04/18 10:19:37;;;;;;;5.40;5.10;;;14.70;99.90;;;;;;5011766;28;20645;-63
2023/04/18 10:22:03;;;;;;;5.60;5.10;;;14.70;99.90;;;;;;5012489;28;20230;-65
2023/04/18 10:24:48;;;;;;;6.40;5.80;;;14.70;99.90;;;;;;5011559;28;20267;-65
2023/04/18 10:27:15;;;;;;;6.03;5.63;;;15.10;99.90;;;;;;5012550;28;20211;-64
2023/04/18 10:29:53;;;;;;;6.27;5.77;;;15.50;99.90;;;;;;5011559;28;20225;-65
2023/04/18 10:32:22;;;;;;;5.60;5.10;;;15.80;99.90;;;;;;4998900;28;20218;-66
2023/04/18 10:34:52;;;;;;;7.97;6.53;;;15.90;99.90;;;;;;5010547;28;20584;-64
2023/04/18 10:37:18;;;;;;;6.37;5.87;;;15.80;99.90;;;;;;5011298;28;20188;-64
2023/04/18 10:39:52;;;;;;;6.33;5.77;;;15.90;99.90;;;;;;5024443;28;20186;-66
2023/04/18 10:42:18;;;;;;;6.67;5.90;;;16.10;99.90;;;;;;4998502;28;20180;-64
2023/04/18 10:45:21;;;;;;;6.50;6.00;;;16.60;99.90;;;;;;5011822;28;20673;-65
2023/04/18 10:47:47;;;;;;;5.87;5.47;;;16.80;99.90;;;;;;5028320;28;20202;-65
2023/04/18 10:50:13;;;;;;;5.83;5.33;;;16.90;99.90;;;;;;5015618;28;20190;-64
2023/04/18 10:52:39;;;;;;;5.87;5.37;;;17.60;99.90;;;;;;5011698;28;20176;-65
2023/04/18 10:55:16;;;;;;;5.30;4.90;;;18.40;99.90;;;;;;5025543;28;20211;-64
2023/04/18 10:57:46;;;;;;;5.70;5.30;;;18.30;99.90;;;;;;5028446;28;20206;-64
2023/04/18 11:00:17;;;;;;;5.50;5.00;;;18.00;99.90;;;;;;5029541;28;20545;-65
2023/04/18 11:02:58;;;;;;;6.00;5.50;;;17.70;99.90;;;;;;5011615;28;20185;-65
2023/04/18 11:05:28;;;;;;;6.20;5.40;;;17.30;99.90;;;;;;5010352;28;20199;-64
2023/04/18 11:07:54;;;;;;;5.70;5.20;;;16.80;99.90;;;;;;5011316;28;20196;-64
2023/04/18 11:10:25;;;;;;;5.50;5.00;;;16.50;99.90;;;;;;5011309;28;20661;-64
2023/04/18 11:12:52;;;;;;;7.57;6.57;;;16.20;99.90;;;;;;4995812;28;20546;-64
2023/04/18 11:15:22;;;;;;;6.20;5.60;;;15.70;99.90;;;;;;5012299;28;20219;-63
2023/04/18 11:18:02;;;;;;;5.90;5.40;;;15.50;99.90;;;;;;5022366;28;20606;-65
2023/04/18 11:20:35;;;;;;;6.30;5.70;;;15.40;99.90;;;;;;5028902;28;20194;-64
2023/04/18 11:23:01;;;;;;;6.73;6.23;;;15.30;99.90;;;;;;5015603;28;20723;-64
2023/04/18 11:25:33;;;;;;;5.70;5.20;;;15.70;99.90;;;;;;5018744;28;20179;-64
2023/04/18 11:28:00;;;;;;;6.43;5.90;;;16.10;99.90;;;;;;5030936;28;20691;-65
2023/04/18 11:30:26;;;;;;;6.57;5.97;;;16.60;99.90;;;;;;5014866;28;20180;-65
2023/04/18 11:32:52;;;;;;;6.20;5.60;;;16.80;99.90;;;;;;5012961;28;20812;-64
2023/04/18 11:35:18;;;;;;;5.70;5.30;;;16.90;99.90;;;;;;5030728;28;20195;-64
2023/04/18 11:37:49;;;;;;;5.97;5.53;;;17.30;99.90;;;;;;5025755;28;20253;-64
2023/04/18 11:40:15;;;;;;;6.50;5.77;;;17.60;99.90;;;;;;5021648;28;20595;-63
2023/04/18 11:42:41;;;;;;;6.07;5.57;;;17.90;99.90;;;;;;5025378;28;20179;-63
2023/04/18 11:45:14;;;;;;;6.33;5.77;;;18.20;99.90;;;;;;5033992;28;20172;-63
2023/04/18 11:47:41;;;;;;;6.27;5.67;;;18.30;99.90;;;;;;4995323;28;20592;-64
2023/04/18 11:50:08;;;;;;;6.10;5.57;;;18.60;99.90;;;;;;4995804;28;20642;-64
2023/04/18 11:52:35;;;;;;;6.53;4.97;;;19.10;99.90;;;;;;5034679;28;20207;-63
2023/04/18 11:55:16;;;;;;;5.87;5.30;;;19.10;99.90;;;;;;5024753;28;20212;-64
2023/04/18 11:57:48;;;;;;;5.70;5.20;;;19.70;99.90;;;;;;5013103;28;20192;-63
2023/04/18 12:00:14;;;;;;;6.18;5.57;;;19.60;99.90;;;;;;5025698;28;20270;-64
2023/04/18 12:02:42;;;;;;;5.90;5.37;;;19.40;99.90;;;;;;5034521;28;20167;-64
2023/04/18 12:05:09;;;;;;;5.27;4.83;;;19.40;99.90;;;;;;5032981;28;20660;-64
2023/04/18 12:07:39;;;;;;;5.63;5.13;;;19.30;99.90;;;;;;5028392;28;20249;-65
2023/04/18 12:10:18;;;;;;;6.37;5.77;;;19.10;99.90;;;;;;5014335;28;20656;-63
2023/04/18 12:12:51;;;;;;;6.10;5.50;;;19.00;99.90;;;;;;5020381;28;20260;-63
2023/04/18 12:15:17;;;;;;;7.63;6.93;;;18.50;99.90;;;;;;5034158;28;20256;-63
2023/04/18 12:17:44;;;;;;;8.17;6.30;;;18.20;99.90;;;;;;5028168;28;20210;-64
2023/04/18 12:20:12;;;;;;;8.40;7.50;;;17.90;99.90;;;;;;5014747;28;20169;-63
2023/04/18 12:22:43;;;;;;;7.13;6.33;;;17.60;99.90;;;;;;5022620;28;20203;-64
2023/04/18 12:25:18;;;;;;;7.27;6.57;;;17.10;99.90;;;;;;5034142;28;20206;-64
2023/04/18 12:28:14;;;;;;;7.87;7.00;;;17.00;99.90;;;;;;5024215;28;20230;-63
2023/04/18 12:30:41;;;;;;;9.77;7.77;;;17.00;99.90;;;;;;5013815;28;20226;-64
2023/04/18 12:33:08;;;;;;;7.60;6.80;;;17.00;99.90;;;;;;5025716;28;20182;-64
2023/04/18 12:35:33;;;;;;;7.27;6.50;;;17.00;99.90;;;;;;5033380;28;20325;-63
2023/04/18 12:38:01;;;;;;;7.53;6.73;;;16.70;99.90;;;;;;5023064;28;20276;-64
2023/04/18 12:40:28;;;;;;;9.53;6.07;;;16.70;99.90;;;;;;5013622;28;20164;-64
2023/04/18 12:42:55;;;;;;;7.10;6.50;;;16.80;99.90;;;;;;5022536;28;20180;-64
2023/04/18 12:45:21;;;;;;;6.50;6.00;;;16.90;99.90;;;;;;5033639;28;20175;-65